sensor_id;sensor_type;location;lat;lon;timestamp;pressure;altitude;pressure_sealevel;temperature;humidity
34297;BME280;20564;42.902;25.336;2024-03-08T00:00:15;97365.63;;;4.52;100.00
34297;BME280;20564;42.902;25.336;2024-03-08T00:02:46;97362.28;;;4.50;100.00
34297;BME280;20564;42.902;25.336;2024-03-08T00:05:14;97360.22;;;4.55;100.00
34297;BME280;20564;42.902;25.336;2024-03-08T00:07:42;97357.81;;;4.52;100.00
34297;BME280;20564;42.902;25.336;2024-03-08T00:10:12;97365.81;;;4.49;100.00
34297;BME280;20564;42.902;25.336;2024-03-08T00:12:43;97351.19;;;4.61;100.00
34297;BME280;20564;42.902;25.336;2024-03-08T00:15:15;97356.91;;;4.66;100.00
34297;BME280;20564;42.902;25.336;2024-03-08T00:17:45;97359.22;;;4.71;100.00
34297;BME280;20564;42.902;25.336;2024-03-08T00:20:13;97355.69;;;4.72;100.00
34297;BME280;20564;42.902;25.336;2024-03-08T00:22:41;97351.94;;;4.76;100.00
34297;BME280;20564;42.902;25.336;2024-03-08T00:25:09;97347.13;;;4.70;100.00
34297;BME280;20564;42.902;25.336;2024-03-08T00:27:36;97348.97;;;4.68;100.00
34297;BME280;20564;42.902;25.336;2024-03-08T00:30:05;97350.88;;;4.66;100.00
34297;BME280;20564;42.902;25.336;2024-03-08T00:32:33;97351.69;;;4.66;100.00
34297;BME280;20564;42.902;25.336;2024-03-08T00:35:01;97348.97;;;4.68;100.00
34297;BME280;20564;42.902;25.336;2024-03-08T00:37:34;97349.72;;;4.70;100.00
34297;BME280;20564;42.902;25.336;2024-03-08T00:40:04;97339.81;;;4.62;100.00
34297;BME280;20564;42.902;25.336;2024-03-08T00:42:33;97345.66;;;4.66;100.00
34297;BME280;20564;42.902;25.336;2024-03-08T00:45:01;97345.47;;;4.69;100.00
34297;BME280;20564;42.902;25.336;2024-03-08T00:47:28;97340.63;;;4.63;100.00
34297;BME280;20564;42.902;25.336;2024-03-08T00:49:55;97342.03;;;4.68;100.00
34297;BME280;20564;42.902;25.336;2024-03-08T00:52:24;97343.56;;;4.58;100.00
34297;BME280;20564;42.902;25.336;2024-03-08T00:54:51;97343.56;;;4.58;100.00
34297;BME280;20564;42.902;25.336;2024-03-08T00:57:18;97339.56;;;4.52;100.00
34297;BME280;20564;42.902;25.336;2024-03-08T00:59:45;97341.44;;;4.50;100.00
34297;BME280;20564;42.902;25.336;2024-03-08T01:02:12;97343.09;;;4.51;100.00
34297;BME280;20564;42.902;25.336;2024-03-08T01:04:39;97344.13;;;4.49;100.00
34297;BME280;20564;42.902;25.336;2024-03-08T01:07:06;97345.81;;;4.50;100.00
34297;BME280;20564;42.902;25.336;2024-03-08T01:09:33;97333.50;;;4.52;100.00
34297;BME280;20564;42.902;25.336;2024-03-08T01:11:59;97344.06;;;4.50;100.00
34297;BME280;20564;42.902;25.336;2024-03-08T01:14:28;97341.25;;;4.53;100.00
34297;BME280;20564;42.902;25.336;2024-03-08T01:16:58;97335.81;;;4.56;100.00
34297;BME280;20564;42.902;25.336;2024-03-08T01:19:26;97343.41;;;4.47;100.00
34297;BME280;20564;42.902;25.336;2024-03-08T01:21:52;97338.66;;;4.53;100.00
34297;BME280;20564;42.902;25.336;2024-03-08T01:24:22;97344.06;;;4.50;100.00
34297;BME280;20564;42.902;25.336;2024-03-08T01:26:50;97339.22;;;4.44;100.00
34297;BME280;20564;42.902;25.336;2024-03-08T01:29:17;97344.31;;;4.46;100.00
34297;BME280;20564;42.902;25.336;2024-03-08T01:31:44;97345.19;;;4.46;100.00
34297;BME280;20564;42.902;25.336;2024-03-08T01:34:10;97344.25;;;4.47;100.00
34297;BME280;20564;42.902;25.336;2024-03-08T01:36:37;97347.50;;;4.51;100.00
34297;BME280;20564;42.902;25.336;2024-03-08T01:39:04;97340.75;;;4.61;100.00
34297;BME280;20564;42.902;25.336;2024-03-08T01:41:35;97340.50;;;4.51;100.00
34297;BME280;20564;42.902;25.336;2024-03-08T01:44:03;97348.31;;;4.51;100.00
34297;BME280;20564;42.902;25.336;2024-03-08T01:46:30;97346.88;;;4.60;100.00
34297;BME280;20564;42.902;25.336;2024-03-08T01:48:58;97357.91;;;4.51;100.00
34297;BME280;20564;42.902;25.336;2024-03-08T01:51:28;97355.38;;;4.49;100.00
34297;BME280;20564;42.902;25.336;2024-03-08T01:53:56;97350.09;;;4.51;100.00
34297;BME280;20564;42.902;25.336;2024-03-08T01:56:26;97357.28;;;4.47;100.00
34297;BME280;20564;42.902;25.336;2024-03-08T01:58:54;97347.78;;;4.46;100.00
34297;BME280;20564;42.902;25.336;2024-03-08T02:01:21;97353.34;;;4.54;100.00
34297;BME280;20564;42.902;25.336;2024-03-08T02:03:49;97348.31;;;4.51;100.00
34297;BME280;20564;42.902;25.336;2024-03-08T02:06:16;97347.03;;;4.44;100.00
34297;BME280;20564;42.902;25.336;2024-03-08T02:08:44;97357.09;;;4.50;100.00
34297;BME280;20564;42.902;25.336;2024-03-08T02:11:13;97345.59;;;4.53;100.00
34297;BME280;20564;42.902;25.336;2024-03-08T02:13:40;97342.91;;;4.54;100.00
34297;BME280;20564;42.902;25.336;2024-03-08T02:16:07;97344.06;;;4.50;100.00
34297;BME280;20564;42.902;25.336;2024-03-08T02:18:36;97351.69;;;4.53;100.00
34297;BME280;20564;42.902;25.336;2024-03-08T02:21:05;97340.63;;;4.50;100.00
34297;BME280;20564;42.902;25.336;2024-03-08T02:23:33;97344.97;;;4.49;100.00
34297;BME280;20564;42.902;25.336;2024-03-08T02:26:03;97342.91;;;4.54;100.00
34297;BME280;20564;42.902;25.336;2024-03-08T02:28:31;97345.19;;;4.46;100.00
34297;BME280;20564;42.902;25.336;2024-03-08T02:30:58;97348.50;;;4.48;100.00
34297;BME280;20564;42.902;25.336;2024-03-08T02:33:26;97348.50;;;4.48;100.00
34297;BME280;20564;42.902;25.336;2024-03-08T02:35:54;97348.13;;;4.54;100.00
34297;BME280;20564;42.902;25.336;2024-03-08T02:38:23;97344.19;;;4.62;100.00
34297;BME280;20564;42.902;25.336;2024-03-08T02:40:53;97344.56;;;4.55;100.00
34297;BME280;20564;42.902;25.336;2024-03-08T02:43:21;97342.81;;;4.56;100.00
34297;BME280;20564;42.902;25.336;2024-03-08T02:45:50;97339.38;;;4.55;100.00
34297;BME280;20564;42.902;25.336;2024-03-08T02:48:17;97343.44;;;4.59;100.00
34297;BME280;20564;42.902;25.336;2024-03-08T02:50:44;97340.00;;;4.59;100.00
34297;BME280;20564;42.902;25.336;2024-03-08T02:53:13;97344.38;;;4.58;100.00
34297;BME280;20564;42.902;25.336;2024-03-08T02:55:40;97337.84;;;4.66;100.00
34297;BME280;20564;42.902;25.336;2024-03-08T02:58:08;97347.31;;;4.67;100.00
34297;BME280;20564;42.902;25.336;2024-03-08T03:00:37;97346.03;;;4.59;100.00
34297;BME280;20564;42.902;25.336;2024-03-08T03:03:08;97344.00;;;4.65;100.00
34297;BME280;20564;42.902;25.336;2024-03-08T03:05:35;97341.72;;;4.73;100.00
34297;BME280;20564;42.902;25.336;2024-03-08T03:08:03;97343.56;;;4.71;100.00
34297;BME280;20564;42.902;25.336;2024-03-08T03:10:36;97341.81;;;4.71;100.00
34297;BME280;20564;42.902;25.336;2024-03-08T03:13:03;97340.88;;;4.72;100.00
34297;BME280;20564;42.902;25.336;2024-03-08T03:15:33;97343.88;;;4.66;100.00
34297;BME280;20564;42.902;25.336;2024-03-08T03:18:01;97342.09;;;4.67;100.00
34297;BME280;20564;42.902;25.336;2024-03-08T03:20:28;97345.47;;;4.69;100.00
34297;BME280;20564;42.902;25.336;2024-03-08T03:23:08;97344.53;;;4.70;100.00
34297;BME280;20564;42.902;25.336;2024-03-08T03:25:36;97345.03;;;4.75;100.00
34297;BME280;20564;42.902;25.336;2024-03-08T03:28:05;97339.63;;;4.78;100.00
34297;BME280;20564;42.902;25.336;2024-03-08T03:30:34;97343.06;;;4.78;100.00
34297;BME280;20564;42.902;25.336;2024-03-08T03:33:02;97343.91;;;4.79;100.00
34297;BME280;20564;42.902;25.336;2024-03-08T03:35:34;97346.63;;;4.77;100.00
34297;BME280;20564;42.902;25.336;2024-03-08T03:38:03;97345.28;;;4.72;100.00
34297;BME280;20564;42.902;25.336;2024-03-08T03:40:37;97339.31;;;4.70;100.00
34297;BME280;20564;42.902;25.336;2024-03-08T03:43:04;97337.34;;;4.73;100.00
34297;BME280;20564;42.902;25.336;2024-03-08T03:45:31;97344.00;;;4.65;100.00
34297;BME280;20564;42.902;25.336;2024-03-08T03:48:05;97340.53;;;4.64;100.00
34297;BME280;20564;42.902;25.336;2024-03-08T03:50:34;97339.69;;;4.64;100.00
34297;BME280;20564;42.902;25.336;2024-03-08T03:53:03;97338.56;;;4.68;100.00
34297;BME280;20564;42.902;25.336;2024-03-08T03:55:34;97339.69;;;4.64;100.00
34297;BME280;20564;42.902;25.336;2024-03-08T03:58:03;97342.94;;;4.67;100.00
34297;BME280;20564;42.902;25.336;2024-03-08T04:00:30;97346.03;;;4.59;100.00
34297;BME280;20564;42.902;25.336;2024-03-08T04:02:57;97353.47;;;4.66;100.00
34297;BME280;20564;42.902;25.336;2024-03-08T04:05:27;97348.97;;;4.68;100.00
34297;BME280;20564;42.902;25.336;2024-03-08T04:07:55;97357.88;;;4.65;100.00
34297;BME280;20564;42.902;25.336;2024-03-08T04:10:22;97355.06;;;4.68;100.00
34297;BME280;20564;42.902;25.336;2024-03-08T04:12:49;97358.50;;;4.69;100.00
34297;BME280;20564;42.902;25.336;2024-03-08T04:15:16;97357.56;;;4.70;100.00
34297;BME280;20564;42.902;25.336;2024-03-08T04:17:43;97366.13;;;4.72;100.00
34297;BME280;20564;42.902;25.336;2024-03-08T04:20:13;97371.13;;;4.75;100.00
34297;BME280;20564;42.902;25.336;2024-03-08T04:22:41;97370.84;;;4.79;100.00
34297;BME280;20564;42.902;25.336;2024-03-08T04:25:10;97373.84;;;4.86;100.00
34297;BME280;20564;42.902;25.336;2024-03-08T04:27:44;97373.03;;;4.86;100.00
34297;BME280;20564;42.902;25.336;2024-03-08T04:30:15;97370.34;;;4.87;100.00
34297;BME280;20564;42.902;25.336;2024-03-08T04:32:42;97370.13;;;4.90;100.00
34297;BME280;20564;42.902;25.336;2024-03-08T04:35:09;97370.41;;;4.86;100.00
34297;BME280;20564;42.902;25.336;2024-03-08T04:37:39;97373.84;;;4.86;100.00
34297;BME280;20564;42.902;25.336;2024-03-08T04:40:07;97379.06;;;4.86;100.00
34297;BME280;20564;42.902;25.336;2024-03-08T04:42:34;97375.13;;;4.80;100.00
34297;BME280;20564;42.902;25.336;2024-03-08T04:45:04;97374.09;;;4.83;100.00
34297;BME280;20564;42.902;25.336;2024-03-08T04:47:30;97375.94;;;4.81;100.00
34297;BME280;20564;42.902;25.336;2024-03-08T04:49:57;97377.81;;;4.79;100.00
34297;BME280;20564;42.902;25.336;2024-03-08T04:52:25;97381.69;;;4.86;100.00
34297;BME280;20564;42.902;25.336;2024-03-08T04:54:52;97381.03;;;4.82;100.00
34297;BME280;20564;42.902;25.336;2024-03-08T04:57:19;97380.22;;;4.82;100.00
34297;BME280;20564;42.902;25.336;2024-03-08T04:59:46;97384.28;;;4.86;100.00
34297;BME280;20564;42.902;25.336;2024-03-08T05:02:14;97389.50;;;4.86;100.00
34297;BME280;20564;42.902;25.336;2024-03-08T05:04:41;97393.06;;;4.85;100.00
34297;BME280;20564;42.902;25.336;2024-03-08T05:07:11;97381.16;;;4.81;100.00
34297;BME280;20564;42.902;25.336;2024-03-08T05:09:38;97396.63;;;4.84;100.00
34297;BME280;20564;42.902;25.336;2024-03-08T05:12:07;97396.31;;;4.89;100.00
34297;BME280;20564;42.902;25.336;2024-03-08T05:14:34;97404.97;;;4.89;100.00
34297;BME280;20564;42.902;25.336;2024-03-08T05:17:02;97403.69;;;4.82;100.00
34297;BME280;20564;42.902;25.336;2024-03-08T05:19:29;97408.25;;;4.78;100.00
34297;BME280;20564;42.902;25.336;2024-03-08T05:22:00;97418.06;;;4.75;100.00
34297;BME280;20564;42.902;25.336;2024-03-08T05:24:28;97417.34;;;4.73;100.00
34297;BME280;20564;42.902;25.336;2024-03-08T05:26:57;97430.19;;;4.76;100.00
34297;BME280;20564;42.902;25.336;2024-03-08T05:29:24;97422.44;;;4.74;100.00
34297;BME280;20564;42.902;25.336;2024-03-08T05:31:52;97429.94;;;4.79;100.00
34297;BME280;20564;42.902;25.336;2024-03-08T05:34:19;97430.81;;;4.79;100.00
34297;BME280;20564;42.902;25.336;2024-03-08T05:36:48;97431.72;;;4.78;100.00
34297;BME280;20564;42.902;25.336;2024-03-08T05:39:18;97435.16;;;4.79;100.00
34297;BME280;20564;42.902;25.336;2024-03-08T05:41:47;97439.78;;;4.75;100.00
34297;BME280;20564;42.902;25.336;2024-03-08T05:44:14;97434.09;;;4.69;100.00
34297;BME280;20564;42.902;25.336;2024-03-08T05:46:44;97443.97;;;4.64;100.00
34297;BME280;20564;42.902;25.336;2024-03-08T05:49:11;97443.78;;;4.67;100.00
34297;BME280;20564;42.902;25.336;2024-03-08T05:51:40;97441.56;;;4.60;100.00
34297;BME280;20564;42.902;25.336;2024-03-08T05:54:08;97463.53;;;4.56;100.00
34297;BME280;20564;42.902;25.336;2024-03-08T05:56:43;97456.78;;;4.54;100.00
34297;BME280;20564;42.902;25.336;2024-03-08T05:59:11;97465.44;;;4.54;100.00
34297;BME280;20564;42.902;25.336;2024-03-08T06:01:39;97454.09;;;4.41;100.00
34297;BME280;20564;42.902;25.336;2024-03-08T06:04:09;97459.28;;;4.41;100.00
34297;BME280;20564;42.902;25.336;2024-03-08T06:06:37;97456.88;;;4.38;100.00
34297;BME280;20564;42.902;25.336;2024-03-08T06:09:04;97461.34;;;4.36;100.00
34297;BME280;20564;42.902;25.336;2024-03-08T06:11:44;97461.19;;;4.39;100.00
34297;BME280;20564;42.902;25.336;2024-03-08T06:14:12;97466.47;;;4.38;100.00
34297;BME280;20564;42.902;25.336;2024-03-08T06:16:39;97466.47;;;4.38;100.00
34297;BME280;20564;42.902;25.336;2024-03-08T06:19:05;97463.78;;;4.39;100.00
34297;BME280;20564;42.902;25.336;2024-03-08T06:21:33;97478.47;;;4.26;100.00
34297;BME280;20564;42.902;25.336;2024-03-08T06:24:00;97472.81;;;4.19;100.00
34297;BME280;20564;42.902;25.336;2024-03-08T06:26:27;97471.44;;;4.14;100.00
34297;BME280;20564;42.902;25.336;2024-03-08T06:28:58;97471.59;;;4.10;100.00
34297;BME280;20564;42.902;25.336;2024-03-08T06:31:25;97478.84;;;4.20;100.00
34297;BME280;20564;42.902;25.336;2024-03-08T06:33:52;97482.22;;;4.22;100.00
34297;BME280;20564;42.902;25.336;2024-03-08T06:36:22;97479.41;;;4.25;100.00
34297;BME280;20564;42.902;25.336;2024-03-08T06:38:50;97475.13;;;4.24;100.00
34297;BME280;20564;42.902;25.336;2024-03-08T06:41:18;97494.13;;;4.26;100.00
34297;BME280;20564;42.902;25.336;2024-03-08T06:43:47;97491.16;;;4.18;100.00
34297;BME280;20564;42.902;25.336;2024-03-08T06:46:24;97491.16;;;4.18;100.00
34297;BME280;20564;42.902;25.336;2024-03-08T06:48:52;97490.03;;;4.07;100.00
34297;BME280;20564;42.902;25.336;2024-03-08T06:51:19;97490.19;;;4.04;100.00
34297;BME280;20564;42.902;25.336;2024-03-08T06:53:46;97499.97;;;4.01;100.00
34297;BME280;20564;42.902;25.336;2024-03-08T06:56:13;97498.31;;;4.00;100.00
34297;BME280;20564;42.902;25.336;2024-03-08T06:58:40;97501.25;;;3.94;100.00
34297;BME280;20564;42.902;25.336;2024-03-08T07:01:07;97511.03;;;3.90;100.00
34297;BME280;20564;42.902;25.336;2024-03-08T07:03:44;97508.97;;;3.81;100.00
34297;BME280;20564;42.902;25.336;2024-03-08T07:06:11;97517.44;;;3.84;100.00
34297;BME280;20564;42.902;25.336;2024-03-08T07:08:38;97519.22;;;3.84;100.00
34297;BME280;20564;42.902;25.336;2024-03-08T07:11:06;97521.81;;;3.84;100.00
34297;BME280;20564;42.902;25.336;2024-03-08T07:13:33;97520.06;;;3.84;100.00
34297;BME280;20564;42.902;25.336;2024-03-08T07:16:00;97518.56;;;3.80;100.00
34297;BME280;20564;42.902;25.336;2024-03-08T07:18:28;97523.09;;;3.91;100.00
34297;BME280;20564;42.902;25.336;2024-03-08T07:20:57;97529.63;;;3.84;100.00
34297;BME280;20564;42.902;25.336;2024-03-08T07:23:24;97529.25;;;3.90;100.00
34297;BME280;20564;42.902;25.336;2024-03-08T07:26:10;97534.63;;;3.87;100.00
34297;BME280;20564;42.902;25.336;2024-03-08T07:28:38;97532.69;;;3.91;100.00
34297;BME280;20564;42.902;25.336;2024-03-08T07:31:05;97534.28;;;3.93;100.00
34297;BME280;20564;42.902;25.336;2024-03-08T07:33:44;97537.66;;;3.95;100.00
34297;BME280;20564;42.902;25.336;2024-03-08T07:36:13;97547.50;;;4.04;100.00
34297;BME280;20564;42.902;25.336;2024-03-08T07:38:41;97547.31;;;4.07;100.00
34297;BME280;20564;42.902;25.336;2024-03-08T07:41:08;97549.44;;;4.01;100.00
34297;BME280;20564;42.902;25.336;2024-03-08T07:43:36;97545.66;;;4.06;100.00
34297;BME280;20564;42.902;25.336;2024-03-08T07:46:03;97550.09;;;4.04;100.00
34297;BME280;20564;42.902;25.336;2024-03-08T07:48:30;97549.44;;;4.01;100.00
34297;BME280;20564;42.902;25.336;2024-03-08T07:50:57;97553.81;;;4.00;100.00
34297;BME280;20564;42.902;25.336;2024-03-08T07:53:24;97551.03;;;4.03;100.00
34297;BME280;20564;42.902;25.336;2024-03-08T07:55:52;97557.19;;;4.02;100.00
34297;BME280;20564;42.902;25.336;2024-03-08T07:58:19;97554.38;;;4.05;100.00
34297;BME280;20564;42.902;25.336;2024-03-08T08:00:46;97556.63;;;4.11;100.00
34297;BME280;20564;42.902;25.336;2024-03-08T08:03:13;97564.63;;;4.08;100.00
34297;BME280;20564;42.902;25.336;2024-03-08T08:05:40;97562.94;;;4.07;100.00
34297;BME280;20564;42.902;25.336;2024-03-08T08:08:07;97564.63;;;4.08;100.00
34297;BME280;20564;42.902;25.336;2024-03-08T08:10:37;97566.94;;;4.13;100.00
34297;BME280;20564;42.902;25.336;2024-03-08T08:13:04;97558.88;;;4.18;100.00
34297;BME280;20564;42.902;25.336;2024-03-08T08:15:32;97572.81;;;4.17;100.00
34297;BME280;20564;42.902;25.336;2024-03-08T08:18:02;97566.28;;;4.09;100.00
34297;BME280;20564;42.902;25.336;2024-03-08T08:20:32;97570.00;;;4.05;100.00
34297;BME280;20564;42.902;25.336;2024-03-08T08:22:59;97567.88;;;4.12;100.00
34297;BME280;20564;42.902;25.336;2024-03-08T08:25:26;97571.72;;;4.06;100.00
34297;BME280;20564;42.902;25.336;2024-03-08T08:27:53;97569.84;;;4.08;100.00
34297;BME280;20564;42.902;25.336;2024-03-08T08:30:20;97573.19;;;4.10;100.00
34297;BME280;20564;42.902;25.336;2024-03-08T08:32:48;97565.94;;;4.16;100.00
34297;BME280;20564;42.902;25.336;2024-03-08T08:35:15;97570.03;;;4.20;100.00
34297;BME280;20564;42.902;25.336;2024-03-08T08:37:43;97570.22;;;4.17;100.00
34297;BME280;20564;42.902;25.336;2024-03-08T08:40:11;97572.16;;;4.13;100.00
34297;BME280;20564;42.902;25.336;2024-03-08T08:42:42;97579.53;;;4.21;100.00
34297;BME280;20564;42.902;25.336;2024-03-08T08:45:10;97578.97;;;4.30;100.00
34297;BME280;20564;42.902;25.336;2024-03-08T08:47:46;97580.94;;;4.26;100.00
34297;BME280;20564;42.902;25.336;2024-03-08T08:50:13;97574.88;;;4.26;100.00
34297;BME280;20564;42.902;25.336;2024-03-08T08:52:40;97577.31;;;4.29;100.00
34297;BME280;20564;42.902;25.336;2024-03-08T08:55:11;97574.78;;;4.27;100.00
34297;BME280;20564;42.902;25.336;2024-03-08T08:57:41;97570.22;;;4.31;100.00
34297;BME280;20564;42.902;25.336;2024-03-08T09:00:09;97579.34;;;4.24;100.00
34297;BME280;20564;42.902;25.336;2024-03-08T09:02:42;97581.22;;;4.22;100.00
34297;BME280;20564;42.902;25.336;2024-03-08T09:05:09;97572.19;;;4.27;100.00
34297;BME280;20564;42.902;25.336;2024-03-08T09:07:38;97579.34;;;4.38;100.00
34297;BME280;20564;42.902;25.336;2024-03-08T09:10:05;97580.28;;;4.37;100.00
34297;BME280;20564;42.902;25.336;2024-03-08T09:12:43;97576.69;;;4.40;100.00
34297;BME280;20564;42.902;25.336;2024-03-08T09:15:10;97576.38;;;4.44;100.00
34297;BME280;20564;42.902;25.336;2024-03-08T09:17:41;97582.16;;;4.49;100.00
34297;BME280;20564;42.902;25.336;2024-03-08T09:20:09;97587.09;;;4.54;100.00
34297;BME280;20564;42.902;25.336;2024-03-08T09:22:44;97581.41;;;4.62;100.00
34297;BME280;20564;42.902;25.336;2024-03-08T09:25:13;97578.63;;;4.65;100.00
34297;BME280;20564;42.902;25.336;2024-03-08T09:27:40;97583.56;;;4.69;100.00
34297;BME280;20564;42.902;25.336;2024-03-08T09:30:08;97588.66;;;4.71;100.00
34297;BME280;20564;42.902;25.336;2024-03-08T09:32:35;97598.72;;;4.77;100.00
34297;BME280;20564;42.902;25.336;2024-03-08T09:35:04;97594.16;;;4.80;100.00
34297;BME280;20564;42.902;25.336;2024-03-08T09:37:34;97593.69;;;4.88;100.00
34297;BME280;20564;42.902;25.336;2024-03-08T09:40:02;97600.97;;;4.97;100.00
34297;BME280;20564;42.902;25.336;2024-03-08T09:42:31;97602.81;;;4.95;100.00
34297;BME280;20564;42.902;25.336;2024-03-08T09:44:58;97600.00;;;4.98;100.00
34297;BME280;20564;42.902;25.336;2024-03-08T09:47:28;97605.97;;;5.00;100.00
34297;BME280;20564;42.902;25.336;2024-03-08T09:50:00;97599.25;;;4.96;100.00
34297;BME280;20564;42.902;25.336;2024-03-08T09:52:29;97600.56;;;5.03;100.00
34297;BME280;20564;42.902;25.336;2024-03-08T09:54:57;97599.06;;;4.99;100.00
34297;BME280;20564;42.902;25.336;2024-03-08T09:57:25;97605.31;;;4.97;100.00
34297;BME280;20564;42.902;25.336;2024-03-08T09:59:52;97605.06;;;4.87;100.00
34297;BME280;20564;42.902;25.336;2024-03-08T10:02:19;97610.47;;;4.84;100.00
34297;BME280;20564;42.902;25.336;2024-03-08T10:04:48;97607.50;;;4.76;100.00
34297;BME280;20564;42.902;25.336;2024-03-08T10:07:15;97609.81;;;4.80;100.00
34297;BME280;20564;42.902;25.336;2024-03-08T10:09:42;97608.97;;;4.80;100.00
34297;BME280;20564;42.902;25.336;2024-03-08T10:12:19;97607.28;;;4.79;100.00
34297;BME280;20564;42.902;25.336;2024-03-08T10:14:46;97611.66;;;4.78;100.00
34297;BME280;20564;42.902;25.336;2024-03-08T10:17:13;97610.34;;;4.86;100.00
34297;BME280;20564;42.902;25.336;2024-03-08T10:19:49;97608.59;;;4.86;100.00
34297;BME280;20564;42.902;25.336;2024-03-08T10:22:18;97604.00;;;4.90;100.00
34297;BME280;20564;42.902;25.336;2024-03-08T10:24:46;97608.22;;;4.92;100.00
34297;BME280;20564;42.902;25.336;2024-03-08T10:27:13;97607.56;;;4.89;100.00
34297;BME280;20564;42.902;25.336;2024-03-08T10:29:42;97600.56;;;4.75;100.00
34297;BME280;20564;42.902;25.336;2024-03-08T10:32:10;97603.75;;;4.66;100.00
34297;BME280;20564;42.902;25.336;2024-03-08T10:34:38;97605.91;;;4.59;100.00
34297;BME280;20564;42.902;25.336;2024-03-08T10:37:07;97599.47;;;4.50;100.00
34297;BME280;20564;42.902;25.336;2024-03-08T10:39:42;97593.34;;;4.51;100.00
34297;BME280;20564;42.902;25.336;2024-03-08T10:42:16;97600.97;;;4.54;100.00
34297;BME280;20564;42.902;25.336;2024-03-08T10:44:53;97601.53;;;4.59;100.00
34297;BME280;20564;42.902;25.336;2024-03-08T10:47:29;97605.06;;;4.58;100.00
34297;BME280;20564;42.902;25.336;2024-03-08T10:52:43;97603.22;;;4.46;100.00
34297;BME280;20564;42.902;25.336;2024-03-08T10:55:12;97602.28;;;4.47;100.00
34297;BME280;20564;42.902;25.336;2024-03-08T10:57:40;97609.63;;;4.55;100.00
34297;BME280;20564;42.902;25.336;2024-03-08T11:00:08;97599.84;;;4.58;100.00
34297;BME280;20564;42.902;25.336;2024-03-08T11:02:38;97590.16;;;4.60;100.00
34297;BME280;20564;42.902;25.336;2024-03-08T11:05:09;97604.13;;;4.74;100.00
34297;BME280;20564;42.902;25.336;2024-03-08T11:07:42;97591.44;;;4.82;100.00
34297;BME280;20564;42.902;25.336;2024-03-08T11:10:19;97589.78;;;4.81;100.00
34297;BME280;20564;42.902;25.336;2024-03-08T11:12:47;97586.63;;;4.76;100.00
34297;BME280;20564;42.902;25.336;2024-03-08T11:15:15;97586.25;;;4.68;100.00
34297;BME280;20564;42.902;25.336;2024-03-08T11:17:49;97578.53;;;4.66;100.00
34297;BME280;20564;42.902;25.336;2024-03-08T11:20:17;97586.81;;;4.73;100.00
34297;BME280;20564;42.902;25.336;2024-03-08T11:33:31;97597.25;;;4.73;100.00
34297;BME280;20564;42.902;25.336;2024-03-08T11:36:07;97596.31;;;4.74;100.00
34297;BME280;20564;42.902;25.336;2024-03-08T11:38:44;97590.16;;;4.75;100.00
34297;BME280;20564;42.902;25.336;2024-03-08T11:41:11;97592.03;;;4.73;100.00
34297;BME280;20564;42.902;25.336;2024-03-08T11:43:47;97591.19;;;4.72;100.00
34297;BME280;20564;42.902;25.336;2024-03-08T11:46:17;97588.19;;;4.64;100.00
34297;BME280;20564;42.902;25.336;2024-03-08T11:48:47;97591.63;;;4.79;100.00
34297;BME280;20564;42.902;25.336;2024-03-08T11:51:15;97594.81;;;4.84;100.00
34297;BME280;20564;42.902;25.336;2024-03-08T11:53:45;97587.72;;;4.86;100.00
34297;BME280;20564;42.902;25.336;2024-03-08T11:56:14;97592.94;;;4.86;100.00
34297;BME280;20564;42.902;25.336;2024-03-08T11:58:52;97595.00;;;4.81;100.00
34297;BME280;20564;42.902;25.336;2024-03-08T12:01:20;97593.50;;;4.77;100.00
34297;BME280;20564;42.902;25.336;2024-03-08T12:03:55;97593.88;;;4.71;100.00
34297;BME280;20564;42.902;25.336;2024-03-08T12:06:27;97590.91;;;4.63;100.00
34297;BME280;20564;42.902;25.336;2024-03-08T12:09:03;97596.31;;;4.59;100.00
34297;BME280;20564;42.902;25.336;2024-03-08T12:11:30;97594.81;;;4.55;100.00
34297;BME280;20564;42.902;25.336;2024-03-08T12:14:00;97592.75;;;4.60;100.00
34297;BME280;20564;42.902;25.336;2024-03-08T12:16:28;97584.75;;;4.64;100.00
34297;BME280;20564;42.902;25.336;2024-03-08T12:18:55;97587.38;;;4.64;100.00
34297;BME280;20564;42.902;25.336;2024-03-08T12:21:22;97592.97;;;4.72;100.00
34297;BME280;20564;42.902;25.336;2024-03-08T12:24:13;97590.44;;;4.84;100.00
34297;BME280;20564;42.902;25.336;2024-03-08T12:26:43;97590.41;;;4.99;100.00
34297;BME280;20564;42.902;25.336;2024-03-08T12:29:18;97580.34;;;5.07;100.00
34297;BME280;20564;42.902;25.336;2024-03-08T12:31:51;97589.00;;;5.07;100.00
34297;BME280;20564;42.902;25.336;2024-03-08T12:34:19;97580.97;;;5.11;100.00
34297;BME280;20564;42.902;25.336;2024-03-08T12:36:51;97581.56;;;5.01;100.00
34297;BME280;20564;42.902;25.336;2024-03-08T12:39:22;97580.25;;;5.08;100.00
34297;BME280;20564;42.902;25.336;2024-03-08T12:41:54;97572.22;;;5.12;100.00
34297;BME280;20564;42.902;25.336;2024-03-08T12:44:21;97573.72;;;5.16;100.00
34297;BME280;20564;42.902;25.336;2024-03-08T12:46:52;97577.03;;;5.18;100.00
34297;BME280;20564;42.902;25.336;2024-03-08T12:49:20;97577.59;;;5.23;100.00
34297;BME280;20564;42.902;25.336;2024-03-08T12:51:50;97569.19;;;5.32;100.00
34297;BME280;20564;42.902;25.336;2024-03-08T12:54:19;97576.47;;;5.27;100.00
34297;BME280;20564;42.902;25.336;2024-03-08T12:56:50;97573.13;;;5.25;100.00
34297;BME280;20564;42.902;25.336;2024-03-08T12:59:21;97567.91;;;5.25;100.00
34297;BME280;20564;42.902;25.336;2024-03-08T13:01:48;97571.78;;;5.32;100.00
34297;BME280;20564;42.902;25.336;2024-03-08T13:04:17;97571.69;;;5.33;100.00
34297;BME280;20564;42.902;25.336;2024-03-08T13:06:46;97574.41;;;5.32;100.00
34297;BME280;20564;42.902;25.336;2024-03-08T13:09:20;97568.97;;;5.35;100.00
34297;BME280;20564;42.902;25.336;2024-03-08T13:11:49;97572.97;;;5.41;100.00